Time;durP1;ratioP1;P1;durP2;ratioP2;P2;SDS_P1;SDS_P2;PMS_P1;PMS_P2;Temp;Humidity;BMP_temperature;BMP_pressure;BME280_temperature;BME280_humidity;BME280_pressure;Samples;Min_cycle;Max_cycle;Signal;HPM_P1;HPM_P2
2022/04/12 00:01:49;;;;;;;;;;;14.30;56.20;;;;;;5100877;28;20197;-67
2022/04/12 00:04:15;;;;;;;;;;;14.30;56.20;;;;;;5100834;28;19907;-66
2022/04/12 00:06:41;;;;;;;;;;;14.30;56.10;;;;;;5100935;28;19907;-67
2022/04/12 00:09:06;;;;;;;;;;;14.30;56.10;;;;;;5101046;28;20295;-66
2022/04/12 00:11:32;;;;;;;;;;;14.30;56.10;;;;;;5100757;28;19979;-67
2022/04/12 00:13:57;;;;;;;;;;;14.30;56.20;;;;;;5101003;28;19955;-66
2022/04/12 00:16:23;;;;;;;;;;;14.30;56.10;;;;;;5100611;28;19988;-67
2022/04/12 00:19:04;;;;;;;;;;;14.30;56.10;;;;;;5100573;28;19974;-67
2022/04/12 00:21:34;;;;;;;;;;;14.30;56.20;;;;;;5100623;28;19914;-66
2022/04/12 00:24:08;;;;;;;;;;;14.30;56.10;;;;;;5100611;28;19938;-68
2022/04/12 00:26:34;;;;;;;;;;;14.20;56.20;;;;;;5100510;28;19908;-66
2022/04/12 00:28:59;;;;;;;;;;;14.30;56.20;;;;;;5099155;28;19907;-67
2022/04/12 00:31:25;;;;;;;;;;;14.20;56.10;;;;;;5100404;28;19900;-67
2022/04/12 00:33:50;;;;;;;;;;;14.30;56.20;;;;;;5100316;28;19943;-66
2022/04/12 00:36:16;;;;;;;;;;;14.20;56.20;;;;;;5100324;28;19915;-66
2022/04/12 00:38:42;;;;;;;;;;;14.20;56.20;;;;;;5100254;28;19922;-67
2022/04/12 00:41:08;;;;;;;;;;;14.20;56.20;;;;;;5100319;28;20020;-67
2022/04/12 00:43:35;;;;;;;;;;;14.20;56.20;;;;;;5100265;28;19900;-67
2022/04/12 00:46:01;;;;;;;;;;;14.20;56.10;;;;;;5100268;28;19900;-67
2022/04/12 00:48:27;;;;;;;;;;;14.20;56.10;;;;;;5100187;28;19973;-66
2022/04/12 00:50:53;;;;;;;;;;;14.20;56.10;;;;;;5100151;28;19996;-67
2022/04/12 00:53:19;;;;;;;;;;;14.20;56.10;;;;;;5100090;28;19908;-67
2022/04/12 00:55:45;;;;;;;;;;;14.20;56.20;;;;;;5100088;28;19977;-67
2022/04/12 00:58:10;;;;;;;;;;;14.20;56.30;;;;;;5100115;28;19907;-67
2022/04/12 01:00:36;;;;;;;;;;;14.20;56.20;;;;;;5099947;28;19994;-67
2022/04/12 01:03:02;;;;;;;;;;;14.20;56.20;;;;;;5100069;28;19915;-67
2022/04/12 01:05:28;;;;;;;;;;;14.20;56.20;;;;;;5099721;28;19908;-68
2022/04/12 01:07:54;;;;;;;;;;;14.20;56.30;;;;;;5099680;28;19939;-66
2022/04/12 01:10:20;;;;;;;;;;;14.20;56.20;;;;;;5099947;28;19908;-66
2022/04/12 01:12:46;;;;;;;;;;;14.20;56.10;;;;;;5099956;28;19967;-66
2022/04/12 01:15:14;;;;;;;;;;;14.20;56.10;;;;;;5099943;28;19912;-67
2022/04/12 01:17:40;;;;;;;;;;;14.20;56.10;;;;;;5099935;28;19900;-66
2022/04/12 01:20:06;;;;;;;;;;;14.20;56.10;;;;;;5099745;28;20230;-68
2022/04/12 01:22:33;;;;;;;;;;;14.20;56.10;;;;;;5099828;28;19908;-67
2022/04/12 01:24:59;;;;;;;;;;;14.20;56.20;;;;;;5099859;28;19971;-66
2022/04/12 01:27:25;;;;;;;;;;;14.20;56.10;;;;;;5099778;28;19907;-68
2022/04/12 01:29:52;;;;;;;;;;;14.20;56.00;;;;;;5099761;28;19905;-66
2022/04/12 01:32:17;;;;;;;;;;;14.20;56.10;;;;;;5099807;28;19915;-66
2022/04/12 01:34:43;;;;;;;;;;;14.10;56.10;;;;;;5099717;28;19908;-67
2022/04/12 01:37:08;;;;;;;;;;;14.10;56.20;;;;;;5099768;28;19907;-67
2022/04/12 01:39:34;;;;;;;;;;;14.10;56.20;;;;;;5099616;28;19943;-67
2022/04/12 01:42:00;;;;;;;;;;;14.10;56.20;;;;;;5099753;28;19971;-66
2022/04/12 01:44:26;;;;;;;;;;;14.10;56.20;;;;;;5099649;28;20008;-67
2022/04/12 01:46:52;;;;;;;;;;;14.10;56.10;;;;;;5099661;28;20315;-66
2022/04/12 01:49:17;;;;;;;;;;;14.10;56.00;;;;;;5099619;28;20022;-67
2022/04/12 01:51:43;;;;;;;;;;;14.10;56.10;;;;;;5099481;28;20400;-67
2022/04/12 01:54:08;;;;;;;;;;;14.10;56.00;;;;;;5099651;28;19958;-66
2022/04/12 01:56:34;;;;;;;;;;;14.10;56.10;;;;;;5099517;28;19915;-67
2022/04/12 01:59:04;;;;;;;;;;;14.10;56.00;;;;;;5098225;28;19953;-66
2022/04/12 02:01:29;;;;;;;;;;;14.10;56.10;;;;;;5099571;28;20118;-67
2022/04/12 02:03:55;;;;;;;;;;;14.10;56.20;;;;;;5099537;28;19907;-67
2022/04/12 02:06:21;;;;;;;;;;;14.10;56.10;;;;;;5099511;28;19907;-67
2022/04/12 02:08:46;;;;;;;;;;;14.10;56.10;;;;;;5099427;28;19908;-66
2022/04/12 02:11:12;;;;;;;;;;;14.10;56.10;;;;;;5099489;28;19984;-67
2022/04/12 02:13:37;;;;;;;;;;;14.10;56.10;;;;;;5099406;28;19908;-66
2022/04/12 02:16:03;;;;;;;;;;;14.10;56.10;;;;;;5099356;28;19908;-67
2022/04/12 02:18:28;;;;;;;;;;;14.10;56.10;;;;;;5101848;28;19900;-67
2022/04/12 02:20:54;;;;;;;;;;;14.00;56.10;;;;;;5102962;28;19946;-66
2022/04/12 02:23:19;;;;;;;;;;;14.00;56.10;;;;;;5102974;28;19908;-66
2022/04/12 02:25:45;;;;;;;;;;;14.00;56.10;;;;;;5102883;28;20192;-67
2022/04/12 02:28:10;;;;;;;;;;;14.00;56.00;;;;;;5102910;28;19900;-67
2022/04/12 02:30:36;;;;;;;;;;;14.00;56.00;;;;;;5102772;28;20254;-67
2022/04/12 02:33:02;;;;;;;;;;;14.10;56.10;;;;;;5102769;28;19916;-66
2022/04/12 02:35:28;;;;;;;;;;;14.10;56.10;;;;;;5102772;28;20218;-66
2022/04/12 02:37:53;;;;;;;;;;;14.00;56.00;;;;;;5102657;28;19915;-67
2022/04/12 02:40:19;;;;;;;;;;;14.00;56.10;;;;;;5102585;28;19919;-67
2022/04/12 02:42:45;;;;;;;;;;;14.00;56.10;;;;;;5102563;28;19949;-66
2022/04/12 02:45:11;;;;;;;;;;;14.10;56.00;;;;;;5101209;28;20217;-67
2022/04/12 02:47:36;;;;;;;;;;;14.00;56.00;;;;;;5102472;28;19915;-66
2022/04/12 02:50:02;;;;;;;;;;;14.00;56.10;;;;;;5102394;28;20135;-67
2022/04/12 02:52:27;;;;;;;;;;;14.00;56.00;;;;;;5102444;28;20508;-66
2022/04/12 02:54:53;;;;;;;;;;;14.10;55.90;;;;;;5102312;28;20200;-66
2022/04/12 02:57:19;;;;;;;;;;;14.10;56.00;;;;;;5102376;28;19900;-66
2022/04/12 02:59:44;;;;;;;;;;;14.00;56.00;;;;;;5102177;28;19923;-67
2022/04/12 03:02:10;;;;;;;;;;;14.00;56.00;;;;;;5102240;28;19942;-67
2022/04/12 03:04:35;;;;;;;;;;;14.00;55.90;;;;;;5102183;28;19969;-66
2022/04/12 03:07:01;;;;;;;;;;;14.00;56.00;;;;;;5102139;28;19915;-67
2022/04/12 03:09:26;;;;;;;;;;;14.00;56.10;;;;;;5102075;28;20410;-66
2022/04/12 03:11:52;;;;;;;;;;;14.00;56.10;;;;;;5102061;28;20227;-67
2022/04/12 03:14:17;;;;;;;;;;;14.00;56.00;;;;;;5102043;28;19954;-67
2022/04/12 03:16:43;;;;;;;;;;;14.00;56.00;;;;;;5101902;28;19949;-67
2022/04/12 03:19:09;;;;;;;;;;;14.00;56.00;;;;;;5101859;28;19915;-65
2022/04/12 03:21:35;;;;;;;;;;;14.10;55.90;;;;;;5101824;28;19907;-67
2022/04/12 03:24:00;;;;;;;;;;;14.00;55.90;;;;;;5101817;28;20081;-66
2022/04/12 03:26:26;;;;;;;;;;;14.00;55.80;;;;;;5101745;28;19914;-67
2022/04/12 03:28:51;;;;;;;;;;;14.00;55.90;;;;;;5101112;28;19908;-67
2022/04/12 03:31:17;;;;;;;;;;;14.00;56.00;;;;;;5101610;28;20222;-66
2022/04/12 03:33:42;;;;;;;;;;;14.00;56.00;;;;;;5101654;28;19908;-67
2022/04/12 03:36:08;;;;;;;;;;;13.90;55.90;;;;;;5101538;28;19908;-66
2022/04/12 03:38:35;;;;;;;;;;;13.90;56.00;;;;;;5101420;28;20096;-67
2022/04/12 03:41:03;;;;;;;;;;;13.90;55.90;;;;;;5101509;28;19900;-66
2022/04/12 03:43:28;;;;;;;;;;;14.00;56.00;;;;;;5101718;28;19911;-67
2022/04/12 03:45:54;;;;;;;;;;;13.90;56.00;;;;;;5101262;28;19946;-66
2022/04/12 03:48:19;;;;;;;;;;;14.00;56.00;;;;;;5101033;28;19908;-67
2022/04/12 03:50:45;;;;;;;;;;;14.00;55.90;;;;;;5101194;28;19900;-66
2022/04/12 03:53:10;;;;;;;;;;;13.90;55.90;;;;;;5101163;28;19908;-66
2022/04/12 03:55:40;;;;;;;;;;;13.90;55.90;;;;;;5101134;28;19908;-67
2022/04/12 03:58:06;;;;;;;;;;;14.00;56.00;;;;;;5101121;28;19942;-66
2022/04/12 04:00:34;;;;;;;;;;;13.90;55.90;;;;;;5100930;28;20240;-66
2022/04/12 04:03:00;;;;;;;;;;;14.00;55.90;;;;;;5101315;28;20149;-66
2022/04/12 04:05:26;;;;;;;;;;;13.90;55.90;;;;;;5100997;28;19971;-66
2022/04/12 04:07:51;;;;;;;;;;;13.90;55.90;;;;;;5101003;28;20220;-66
2022/04/12 04:10:17;;;;;;;;;;;13.90;55.90;;;;;;5100846;28;19912;-66
2022/04/12 04:12:43;;;;;;;;;;;13.90;55.90;;;;;;5100818;28;19908;-67
2022/04/12 04:15:12;;;;;;;;;;;13.90;55.90;;;;;;5100880;28;19907;-66
2022/04/12 04:17:44;;;;;;;;;;;13.90;55.90;;;;;;5100748;28;19915;-66
2022/04/12 04:20:10;;;;;;;;;;;13.90;55.90;;;;;;5100616;28;19962;-67
2022/04/12 04:22:36;;;;;;;;;;;13.90;55.90;;;;;;5100660;28;20123;-66
2022/04/12 04:25:02;;;;;;;;;;;13.90;55.90;;;;;;5100632;28;19908;-66
2022/04/12 04:27:29;;;;;;;;;;;13.80;56.00;;;;;;5100708;28;19979;-66
2022/04/12 04:29:55;;;;;;;;;;;13.80;56.00;;;;;;5100491;28;19990;-67
2022/04/12 04:32:21;;;;;;;;;;;13.90;55.90;;;;;;5100617;28;19907;-67
2022/04/12 04:34:47;;;;;;;;;;;13.90;56.00;;;;;;5100479;28;20588;-66
2022/04/12 04:37:12;;;;;;;;;;;13.80;55.90;;;;;;5100412;28;20196;-67
2022/04/12 04:39:38;;;;;;;;;;;13.90;55.90;;;;;;5100340;28;19919;-66
2022/04/12 04:42:05;;;;;;;;;;;13.90;55.90;;;;;;5099405;28;19908;-66
2022/04/12 04:44:31;;;;;;;;;;;13.90;55.90;;;;;;5100541;28;19900;-67
2022/04/12 04:46:56;;;;;;;;;;;13.80;55.90;;;;;;5100266;28;20219;-66
2022/04/12 04:49:22;;;;;;;;;;;13.90;55.80;;;;;;5100304;28;19908;-67
2022/04/12 04:51:47;;;;;;;;;;;13.80;55.90;;;;;;5100396;28;19908;-67
2022/04/12 04:54:13;;;;;;;;;;;13.90;56.00;;;;;;5100143;28;19911;-67
2022/04/12 04:56:39;;;;;;;;;;;13.90;55.90;;;;;;5100228;28;19965;-67
2022/04/12 04:59:04;;;;;;;;;;;13.90;55.90;;;;;;5100030;28;19939;-66
2022/04/12 05:01:30;;;;;;;;;;;13.80;55.90;;;;;;5100112;28;20211;-66
2022/04/12 05:03:55;;;;;;;;;;;13.80;55.80;;;;;;5100030;28;19907;-66
2022/04/12 05:06:21;;;;;;;;;;;13.80;55.90;;;;;;5100009;28;19908;-66
2022/04/12 05:08:46;;;;;;;;;;;13.90;55.80;;;;;;5099989;28;20222;-66
2022/04/12 05:11:12;;;;;;;;;;;13.90;55.80;;;;;;5100016;28;20374;-67
2022/04/12 05:13:37;;;;;;;;;;;13.90;55.80;;;;;;5099981;28;20277;-67
2022/04/12 05:16:03;;;;;;;;;;;13.80;55.80;;;;;;5099899;28;20195;-67
2022/04/12 05:18:29;;;;;;;;;;;13.80;55.70;;;;;;5099989;28;20397;-66
2022/04/12 05:20:54;;;;;;;;;;;13.80;55.70;;;;;;5099756;28;19912;-67
2022/04/12 05:23:20;;;;;;;;;;;13.80;55.70;;;;;;5100129;28;19939;-67
2022/04/12 05:25:45;;;;;;;;;;;13.90;55.80;;;;;;5099796;28;19900;-67
2022/04/12 05:28:11;;;;;;;;;;;13.80;55.70;;;;;;5099848;28;20226;-65
2022/04/12 05:30:36;;;;;;;;;;;13.80;55.70;;;;;;5099777;28;19946;-66
2022/04/12 05:33:02;;;;;;;;;;;13.90;55.80;;;;;;5099791;28;19981;-66
2022/04/12 05:35:27;;;;;;;;;;;13.80;55.70;;;;;;5099776;28;20296;-67
2022/04/12 05:37:53;;;;;;;;;;;13.90;55.60;;;;;;5099853;28;19975;-67
2022/04/12 05:40:20;;;;;;;;;;;13.80;55.60;;;;;;5099897;28;19911;-67
2022/04/12 05:42:46;;;;;;;;;;;13.90;55.60;;;;;;5099583;28;19954;-67
2022/04/12 05:45:12;;;;;;;;;;;13.80;55.60;;;;;;5099690;28;19978;-68
2022/04/12 05:47:44;;;;;;;;;;;13.80;55.60;;;;;;5099861;28;19935;-67
2022/04/12 05:50:11;;;;;;;;;;;13.80;55.70;;;;;;5099701;28;19945;-66
2022/04/12 05:52:38;;;;;;;;;;;13.90;55.60;;;;;;5100756;28;19922;-66
2022/04/12 05:55:07;;;;;;;;;;;13.90;55.50;;;;;;5103469;28;19932;-66
2022/04/12 05:57:38;;;;;;;;;;;13.90;55.60;;;;;;5103438;28;19915;-67
2022/04/12 06:00:07;;;;;;;;;;;13.90;55.40;;;;;;5103262;28;19916;-67
2022/04/12 06:02:33;;;;;;;;;;;13.90;55.40;;;;;;5103355;28;19919;-67
2022/04/12 06:04:59;;;;;;;;;;;13.90;55.40;;;;;;5103324;28;19958;-66
2022/04/12 06:07:31;;;;;;;;;;;13.90;55.50;;;;;;5103175;28;19915;-67
2022/04/12 06:09:57;;;;;;;;;;;13.90;55.50;;;;;;5103149;28;19907;-67
2022/04/12 06:12:22;;;;;;;;;;;13.90;55.40;;;;;;5103152;28;19915;-67
2022/04/12 06:14:48;;;;;;;;;;;13.90;55.30;;;;;;5103041;28;19915;-66
2022/04/12 06:17:13;;;;;;;;;;;14.00;55.30;;;;;;5103236;28;19974;-66
2022/04/12 06:19:39;;;;;;;;;;;14.00;55.20;;;;;;5102917;28;19935;-68
2022/04/12 06:22:04;;;;;;;;;;;14.00;55.20;;;;;;5102952;28;19908;-67
2022/04/12 06:24:30;;;;;;;;;;;14.00;55.20;;;;;;5102904;28;19945;-66
2022/04/12 06:26:56;;;;;;;;;;;14.00;55.20;;;;;;5103038;28;19947;-66
2022/04/12 06:29:21;;;;;;;;;;;14.00;55.20;;;;;;5102834;28;19911;-68
2022/04/12 06:31:47;;;;;;;;;;;14.00;55.10;;;;;;5102737;28;19908;-68
2022/04/12 06:34:12;;;;;;;;;;;14.00;55.10;;;;;;5102755;28;20456;-66
2022/04/12 06:36:38;;;;;;;;;;;14.00;55.10;;;;;;5102656;28;19914;-66
2022/04/12 06:39:03;;;;;;;;;;;14.00;55.20;;;;;;5102503;28;19912;-66
2022/04/12 06:41:29;;;;;;;;;;;14.00;55.20;;;;;;5102604;28;20196;-66
2022/04/12 06:43:54;;;;;;;;;;;14.00;55.10;;;;;;5102519;28;19908;-66
2022/04/12 06:46:20;;;;;;;;;;;14.00;55.10;;;;;;5102546;28;19985;-66
2022/04/12 06:48:45;;;;;;;;;;;14.00;55.10;;;;;;5102389;28;20394;-66
2022/04/12 06:51:11;;;;;;;;;;;14.10;55.10;;;;;;5102388;28;19943;-66
2022/04/12 06:53:36;;;;;;;;;;;14.00;55.00;;;;;;5102193;28;19923;-66
2022/04/12 06:56:02;;;;;;;;;;;14.00;55.00;;;;;;5102313;28;19908;-67
2022/04/12 06:58:27;;;;;;;;;;;14.00;55.10;;;;;;5102274;28;19914;-68
2022/04/12 07:00:53;;;;;;;;;;;14.00;55.00;;;;;;5102136;28;19923;-67
2022/04/12 07:03:18;;;;;;;;;;;14.10;54.90;;;;;;5101835;28;19907;-66
2022/04/12 07:05:45;;;;;;;;;;;14.00;54.80;;;;;;5101409;28;19953;-67
2022/04/12 07:08:12;;;;;;;;;;;14.00;54.90;;;;;;5102108;28;19904;-66
2022/04/12 07:10:37;;;;;;;;;;;14.10;54.90;;;;;;5102049;28;19964;-67
2022/04/12 07:13:03;;;;;;;;;;;14.00;54.90;;;;;;5101911;28;20220;-67
2022/04/12 07:15:28;;;;;;;;;;;14.10;54.90;;;;;;5101986;28;20229;-67
2022/04/12 07:17:54;;;;;;;;;;;14.10;54.90;;;;;;5100528;28;19908;-66
2022/04/12 07:20:20;;;;;;;;;;;14.00;54.80;;;;;;5101823;28;19904;-66
2022/04/12 07:22:46;;;;;;;;;;;14.10;54.90;;;;;;5101740;28;19900;-66
2022/04/12 07:25:11;;;;;;;;;;;14.00;54.90;;;;;;5101772;28;19935;-67
2022/04/12 07:27:37;;;;;;;;;;;14.10;54.90;;;;;;5101635;28;19908;-66
2022/04/12 07:30:04;;;;;;;;;;;14.00;54.90;;;;;;5101582;28;20225;-67
2022/04/12 07:32:30;;;;;;;;;;;14.10;55.00;;;;;;5101658;28;19954;-66
2022/04/12 07:34:55;;;;;;;;;;;14.00;54.90;;;;;;5101483;28;19903;-66
2022/04/12 07:37:21;;;;;;;;;;;14.00;55.00;;;;;;5101472;28;19908;-66
2022/04/12 07:39:46;;;;;;;;;;;14.00;54.90;;;;;;5101322;28;19919;-67
2022/04/12 07:42:13;;;;;;;;;;;14.00;55.00;;;;;;5101404;28;19908;-67
2022/04/12 07:44:39;;;;;;;;;;;14.00;55.00;;;;;;5101457;28;20432;-66
2022/04/12 07:47:05;;;;;;;;;;;14.00;55.00;;;;;;5101293;28;19907;-67
2022/04/12 07:49:30;;;;;;;;;;;14.00;55.00;;;;;;5101268;28;19900;-66
2022/04/12 07:51:59;;;;;;;;;;;14.00;55.10;;;;;;5101003;28;19912;-66
2022/04/12 07:54:24;;;;;;;;;;;14.00;55.00;;;;;;5101191;28;19944;-67
2022/04/12 07:56:50;;;;;;;;;;;14.00;55.10;;;;;;5101112;28;19935;-66
2022/04/12 07:59:15;;;;;;;;;;;14.00;55.20;;;;;;5101003;28;19937;-67
2022/04/12 08:01:42;;;;;;;;;;;14.00;55.10;;;;;;5101030;28;20196;-66
2022/04/12 08:04:07;;;;;;;;;;;14.00;55.10;;;;;;5101055;28;19915;-66
2022/04/12 08:06:33;;;;;;;;;;;14.00;55.20;;;;;;5101000;28;20134;-66
2022/04/12 08:08:58;;;;;;;;;;;14.00;55.20;;;;;;5100969;28;19950;-66
2022/04/12 08:11:24;;;;;;;;;;;14.00;55.80;;;;;;5100868;28;19908;-67
2022/04/12 08:13:49;;;;;;;;;;;14.00;55.10;;;;;;5100961;28;19985;-66
2022/04/12 08:16:15;;;;;;;;;;;14.00;55.20;;;;;;5100588;28;20095;-66
2022/04/12 08:18:42;;;;;;;;;;;14.00;55.20;;;;;;5100781;28;19904;-66
2022/04/12 08:21:08;;;;;;;;;;;14.00;55.20;;;;;;5100790;28;19991;-67
2022/04/12 08:23:33;;;;;;;;;;;14.00;55.20;;;;;;5100619;28;20215;-67
2022/04/12 08:25:59;;;;;;;;;;;14.00;55.80;;;;;;5100670;28;20196;-66
2022/04/12 08:28:25;;;;;;;;;;;14.00;55.10;;;;;;5100572;28;20092;-66
2022/04/12 08:30:50;;;;;;;;;;;14.00;55.20;;;;;;5100594;28;19907;-66
2022/04/12 08:33:16;;;;;;;;;;;14.00;55.30;;;;;;5100503;28;19915;-66
2022/04/12 08:35:42;;;;;;;;;;;14.00;55.20;;;;;;5099240;28;19908;-66
2022/04/12 08:38:08;;;;;;;;;;;14.00;55.20;;;;;;5100594;28;19941;-66
2022/04/12 08:40:34;;;;;;;;;;;14.00;55.20;;;;;;5100276;28;19904;-67
2022/04/12 08:43:00;;;;;;;;;;;14.00;55.20;;;;;;5100495;28;19914;-67
2022/04/12 08:45:26;;;;;;;;;;;14.00;55.30;;;;;;5100350;28;19923;-66
2022/04/12 08:47:52;;;;;;;;;;;14.00;55.30;;;;;;5100363;28;20192;-67
2022/04/12 08:50:18;;;;;;;;;;;14.00;55.40;;;;;;5100252;28;20163;-66
2022/04/12 08:52:45;;;;;;;;;;;14.00;55.30;;;;;;5100100;28;20208;-67
2022/04/12 08:55:11;;;;;;;;;;;14.00;55.30;;;;;;5100273;28;19908;-66
2022/04/12 08:57:37;;;;;;;;;;;14.00;55.40;;;;;;5100226;28;19950;-66
2022/04/12 09:00:05;;;;;;;;;;;14.00;55.40;;;;;;5100137;28;20144;-67
2022/04/12 09:02:30;;;;;;;;;;;14.00;55.40;;;;;;5100189;28;19900;-66
2022/04/12 09:04:56;;;;;;;;;;;14.00;55.50;;;;;;5100118;28;19943;-66
2022/04/12 09:07:26;;;;;;;;;;;14.00;55.40;;;;;;5100162;28;19915;-67
2022/04/12 09:09:52;;;;;;;;;;;14.00;55.40;;;;;;5100115;28;19908;-66
2022/04/12 09:12:18;;;;;;;;;;;14.00;55.50;;;;;;5100107;28;19908;-67
2022/04/12 09:14:48;;;;;;;;;;;14.10;55.40;;;;;;5099974;28;19979;-67
2022/04/12 09:17:15;;;;;;;;;;;14.00;55.40;;;;;;5100033;28;19943;-67
2022/04/12 09:19:44;;;;;;;;;;;14.00;55.40;;;;;;5098754;28;19927;-67
2022/04/12 09:22:12;;;;;;;;;;;14.00;55.50;;;;;;5100016;28;20186;-66
2022/04/12 09:24:48;;;;;;;;;;;14.10;55.50;;;;;;5100019;28;19972;-66
2022/04/12 09:27:14;;;;;;;;;;;14.10;55.50;;;;;;5100697;28;19908;-67
2022/04/12 09:29:44;;;;;;;;;;;14.10;55.40;;;;;;5104222;28;19975;-66
2022/04/12 09:32:13;;;;;;;;;;;14.10;55.40;;;;;;5104330;28;19935;-67
2022/04/12 09:34:39;;;;;;;;;;;14.10;55.50;;;;;;5104053;28;19908;-67
2022/04/12 09:37:27;;;;;;;;;;;14.10;55.40;;;;;;5103996;28;19932;-66
2022/04/12 09:39:55;;;;;;;;;;;14.10;55.40;;;;;;5103855;28;19934;-68
2022/04/12 09:42:41;;;;;;;;;;;14.10;55.40;;;;;;5103851;28;19907;-66
2022/04/12 09:45:07;;;;;;;;;;;14.10;55.50;;;;;;5103841;28;20228;-67
2022/04/12 09:47:33;;;;;;;;;;;14.10;56.00;;;;;;5103778;28;19943;-67
2022/04/12 09:49:59;;;;;;;;;;;14.10;55.40;;;;;;5104087;28;19908;-67
2022/04/12 09:52:24;;;;;;;;;;;14.10;55.50;;;;;;5103516;28;19916;-67
2022/04/12 09:54:51;;;;;;;;;;;14.10;55.50;;;;;;5103717;28;19908;-67
2022/04/12 09:57:17;;;;;;;;;;;14.10;55.50;;;;;;5103590;28;20261;-66
2022/04/12 09:59:44;;;;;;;;;;;14.10;55.50;;;;;;5103518;28;19916;-67
2022/04/12 10:02:11;;;;;;;;;;;14.10;55.50;;;;;;5103541;28;19908;-66
2022/04/12 10:04:38;;;;;;;;;;;14.10;55.40;;;;;;5103498;28;19914;-66
2022/04/12 10:07:05;;;;;;;;;;;14.10;55.50;;;;;;5103413;28;19908;-67
2022/04/12 10:09:32;;;;;;;;;;;14.10;55.50;;;;;;5103482;28;19971;-66
2022/04/12 10:11:58;;;;;;;;;;;14.20;55.60;;;;;;5103356;28;19915;-67
2022/04/12 10:14:24;;;;;;;;;;;14.20;55.60;;;;;;5103313;28;19907;-66
2022/04/12 10:16:49;;;;;;;;;;;14.10;55.60;;;;;;5103322;28;19939;-67
2022/04/12 10:19:15;;;;;;;;;;;14.20;55.60;;;;;;5103158;28;19969;-66
2022/04/12 10:21:41;;;;;;;;;;;14.20;55.60;;;;;;5103200;28;20241;-67
2022/04/12 10:24:07;;;;;;;;;;;14.20;55.60;;;;;;5103124;28;19931;-67
2022/04/12 10:26:33;;;;;;;;;;;14.20;55.60;;;;;;5103116;28;19911;-66
2022/04/12 10:29:00;;;;;;;;;;;14.10;55.60;;;;;;5103127;28;19916;-66
2022/04/12 10:31:30;;;;;;;;;;;14.10;55.70;;;;;;5102970;28;19925;-66
2022/04/12 10:34:01;;;;;;;;;;;14.10;55.60;;;;;;5102881;28;19900;-67
2022/04/12 10:36:45;;;;;;;;;;;14.20;55.40;;;;;;5102897;28;19949;-67
2022/04/12 10:39:12;;;;;;;;;;;14.20;55.50;;;;;;5102786;28;20206;-66
2022/04/12 10:41:38;;;;;;;;;;;14.20;55.60;;;;;;5102818;28;19912;-66
2022/04/12 10:44:18;;;;;;;;;;;14.20;55.30;;;;;;5102760;28;19908;-67
2022/04/12 10:46:48;;;;;;;;;;;14.20;55.70;;;;;;5102731;28;20103;-67
2022/04/12 10:49:16;;;;;;;;;;;14.20;55.60;;;;;;5102643;28;19907;-67
2022/04/12 10:51:42;;;;;;;;;;;14.20;55.70;;;;;;5102512;28;19915;-66
2022/04/12 10:54:46;;;;;;;;;;;14.20;55.70;;;;;;5102685;28;19907;-66
2022/04/12 10:57:22;;;;;;;;;;;14.20;55.70;;;;;;5040003;28;19944;-66
2022/04/12 10:59:52;;;;;;;;;;;14.20;55.80;;;;;;5039887;28;19917;-66
2022/04/12 11:02:18;;;;;;;;;;;14.20;55.80;;;;;;5075659;28;19967;-67
2022/04/12 11:04:44;;;;;;;;;;;14.20;55.80;;;;;;5102374;28;20223;-67
2022/04/12 11:07:26;;;;;;;;;;;14.30;55.70;;;;;;5102399;28;19908;-67
2022/04/12 11:10:06;;;;;;;;;;;14.20;55.80;;;;;;5102322;28;19904;-66
2022/04/12 11:12:39;;;;;;;;;;;14.30;55.80;;;;;;5102215;28;19915;-67
2022/04/12 11:15:21;;;;;;;;;;;14.20;55.80;;;;;;5102185;28;19908;-67
2022/04/12 11:17:46;;;;;;;;;;;14.30;55.80;;;;;;5100810;28;19912;-67
2022/04/12 11:20:22;;;;;;;;;;;14.30;55.80;;;;;;5102106;28;19923;-67
2022/04/12 11:22:57;;;;;;;;;;;14.30;55.80;;;;;;5102065;28;19908;-68
2022/04/12 11:25:26;;;;;;;;;;;14.40;55.80;;;;;;5101974;28;19908;-67
2022/04/12 11:27:55;;;;;;;;;;;14.30;55.70;;;;;;5101939;28;19954;-66
2022/04/12 11:30:21;;;;;;;;;;;14.40;55.80;;;;;;5101901;28;20182;-67
2022/04/12 11:32:47;;;;;;;;;;;14.30;55.70;;;;;;5101829;28;19954;-67
2022/04/12 11:35:13;;;;;;;;;;;14.30;55.70;;;;;;5100537;28;19908;-67
2022/04/12 11:37:43;;;;;;;;;;;14.40;55.70;;;;;;5101789;28;19908;-67
2022/04/12 11:40:09;;;;;;;;;;;14.40;55.80;;;;;;5101645;28;19912;-67
2022/04/12 11:42:34;;;;;;;;;;;14.40;55.70;;;;;;5101581;28;19915;-66
2022/04/12 11:45:00;;;;;;;;;;;14.40;55.70;;;;;;5101584;28;19900;-66
2022/04/12 11:47:27;;;;;;;;;;;14.40;55.70;;;;;;5101577;28;20091;-66
2022/04/12 11:49:53;;;;;;;;;;;14.40;55.70;;;;;;5101042;28;19915;-66
2022/04/12 11:52:18;;;;;;;;;;;14.40;55.80;;;;;;5101314;28;20258;-66
2022/04/12 11:54:46;;;;;;;;;;;14.40;55.80;;;;;;5101322;28;19908;-67
2022/04/12 11:57:13;;;;;;;;;;;14.50;55.80;;;;;;5101424;28;19908;-66
2022/04/12 11:59:48;;;;;;;;;;;14.50;56.00;;;;;;5101277;28;19920;-68
2022/04/12 12:02:15;;;;;;;;;;;14.50;55.80;;;;;;5101295;28;19951;-66
2022/04/12 12:04:45;;;;;;;;;;;14.50;55.80;;;;;;5101273;28;19986;-67
2022/04/12 12:07:11;;;;;;;;;;;14.50;55.70;;;;;;5101210;28;20188;-66
2022/04/12 12:09:38;;;;;;;;;;;14.50;55.80;;;;;;5101152;28;19946;-67
2022/04/12 12:12:04;;;;;;;;;;;14.50;55.80;;;;;;5101093;28;19900;-67
2022/04/12 12:14:30;;;;;;;;;;;14.50;55.80;;;;;;5101138;28;19971;-67
2022/04/12 12:17:03;;;;;;;;;;;14.50;55.70;;;;;;5101166;28;19942;-66
2022/04/12 12:19:29;;;;;;;;;;;14.50;55.70;;;;;;5101000;28;19918;-67
2022/04/12 12:21:55;;;;;;;;;;;14.60;55.70;;;;;;5100877;28;19908;-68
2022/04/12 12:24:20;;;;;;;;;;;14.50;55.70;;;;;;5100889;28;19906;-67
2022/04/12 12:26:51;;;;;;;;;;;14.60;55.70;;;;;;5100738;28;20222;-68
2022/04/12 12:29:20;;;;;;;;;;;14.50;55.60;;;;;;5100824;28;20204;-66
2022/04/12 12:31:45;;;;;;;;;;;14.60;55.70;;;;;;5100688;28;19900;-66
2022/04/12 12:34:30;;;;;;;;;;;14.60;55.70;;;;;;5100716;28;20233;-67
2022/04/12 12:36:56;;;;;;;;;;;14.60;55.70;;;;;;5100622;28;19973;-66
2022/04/12 12:39:25;;;;;;;;;;;14.60;55.60;;;;;;5100585;28;19915;-66
2022/04/12 12:41:54;;;;;;;;;;;14.60;55.60;;;;;;5100542;28;20158;-67
2022/04/12 12:44:21;;;;;;;;;;;14.70;55.60;;;;;;5100586;28;19900;-66
2022/04/12 12:46:46;;;;;;;;;;;14.60;55.60;;;;;;5100441;28;19915;-67
2022/04/12 12:49:19;;;;;;;;;;;14.70;55.60;;;;;;5100411;28;19908;-66
2022/04/12 12:51:44;;;;;;;;;;;14.70;55.60;;;;;;5100228;28;19943;-67
2022/04/12 12:54:14;;;;;;;;;;;14.70;55.50;;;;;;5100376;28;19900;-66
2022/04/12 12:56:40;;;;;;;;;;;14.70;55.50;;;;;;5100597;28;19908;-67
2022/04/12 12:59:15;;;;;;;;;;;14.70;55.60;;;;;;5098941;28;20250;-67
2022/04/12 13:01:42;;;;;;;;;;;14.70;55.50;;;;;;5099639;28;20180;-67
2022/04/12 13:04:18;;;;;;;;;;;14.70;55.50;;;;;;5100099;28;20219;-66
2022/04/12 13:06:44;;;;;;;;;;;14.80;55.60;;;;;;5100259;28;20011;-67
2022/04/12 13:09:09;;;;;;;;;;;14.80;55.50;;;;;;5100248;28;19912;-66
2022/04/12 13:11:35;;;;;;;;;;;14.80;55.40;;;;;;5100156;28;20095;-67
2022/04/12 13:14:01;;;;;;;;;;;14.80;55.40;;;;;;5100173;28;19900;-66
2022/04/12 13:16:27;;;;;;;;;;;14.80;55.40;;;;;;5100108;28;19907;-67
2022/04/12 13:19:01;;;;;;;;;;;14.80;55.40;;;;;;5100009;28;19936;-67
2022/04/12 13:21:27;;;;;;;;;;;14.90;55.40;;;;;;5100053;28;20151;-67
2022/04/12 13:23:52;;;;;;;;;;;14.90;55.40;;;;;;5100032;28;19935;-67
2022/04/12 13:26:18;;;;;;;;;;;14.90;55.30;;;;;;5100075;28;20008;-67
2022/04/12 13:28:44;;;;;;;;;;;14.90;55.30;;;;;;5099963;28;19950;-67
2022/04/12 13:31:09;;;;;;;;;;;14.90;55.30;;;;;;5100097;28;19915;-67
2022/04/12 13:33:35;;;;;;;;;;;15.00;55.30;;;;;;5099921;28;20298;-67
2022/04/12 13:36:00;;;;;;;;;;;15.00;55.30;;;;;;5099926;28;20073;-66
2022/04/12 13:38:27;;;;;;;;;;;15.00;55.20;;;;;;5099933;28;20257;-66
2022/04/12 13:40:53;;;;;;;;;;;15.00;55.20;;;;;;5099776;28;19911;-67
2022/04/12 13:43:18;;;;;;;;;;;15.00;55.20;;;;;;5099914;28;19915;-67
2022/04/12 13:45:44;;;;;;;;;;;15.00;55.10;;;;;;5099771;28;19914;-67
2022/04/12 13:48:13;;;;;;;;;;;15.10;55.10;;;;;;5099807;28;19908;-68
2022/04/12 13:50:39;;;;;;;;;;;15.10;55.00;;;;;;5099856;28;19915;-66
2022/04/12 13:53:05;;;;;;;;;;;15.20;55.00;;;;;;5099564;28;20294;-66
2022/04/12 13:55:31;;;;;;;;;;;15.10;54.90;;;;;;5099719;28;19904;-65
2022/04/12 13:57:56;;;;;;;;;;;15.20;54.90;;;;;;5099709;28;19950;-67
2022/04/12 14:00:23;;;;;;;;;;;15.20;54.80;;;;;;5099501;28;20431;-66
2022/04/12 14:02:50;;;;;;;;;;;15.20;54.80;;;;;;5099653;28;19908;-66
2022/04/12 14:05:15;;;;;;;;;;;15.30;54.80;;;;;;5099596;28;19939;-66
2022/04/12 14:07:42;;;;;;;;;;;15.30;54.70;;;;;;5099639;28;19900;-66
2022/04/12 14:10:08;;;;;;;;;;;15.30;54.70;;;;;;5099477;28;20303;-67
2022/04/12 14:12:34;;;;;;;;;;;15.30;54.70;;;;;;5099761;28;19943;-67
2022/04/12 14:14:59;;;;;;;;;;;15.40;54.80;;;;;;5102914;28;19982;-68